Time;durP1;ratioP1;P1;durP2;ratioP2;P2;SDS_P1;SDS_P2;PMS_P1;PMS_P2;Temp;Humidity;BMP_temperature;BMP_pressure;BME280_temperature;BME280_humidity;BME280_pressure;Samples;Min_cycle;Max_cycle;Signal;HPM_P1;HPM_P2
2022/02/13 00:00:37;;;;;;;6.72;4.63;;;;;;;3.71;78.71;101900.09;5079420;28;20031;-80
2022/02/13 00:03:02;;;;;;;6.32;5.07;;;;;;;3.72;78.99;101907.00;5067935;28;20365;-80
2022/02/13 00:05:28;;;;;;;9.52;5.97;;;;;;;3.71;78.92;101900.97;5054266;28;20047;-80
2022/02/13 00:07:54;;;;;;;4.57;4.18;;;;;;;3.72;79.38;101889.72;5071002;28;20032;-80
2022/02/13 00:10:20;;;;;;;5.68;4.97;;;;;;;3.71;78.95;101888.03;5094525;28;20051;-80
2022/02/13 00:12:45;;;;;;;5.60;4.78;;;;;;;3.67;78.13;101890.56;5083352;28;20032;-80
2022/02/13 00:15:10;;;;;;;5.20;4.47;;;;;;;3.66;78.66;101887.13;5062133;28;20036;-80
2022/02/13 00:17:36;;;;;;;5.05;4.28;;;;;;;3.66;78.92;101881.94;5096958;28;20559;-80
2022/02/13 00:20:04;;;;;;;6.28;4.38;;;;;;;3.68;79.42;101874.19;5078629;28;20236;-81
2022/02/13 00:22:30;;;;;;;5.85;4.32;;;;;;;3.70;79.55;101869.88;5097185;28;20492;-80
2022/02/13 00:24:55;;;;;;;5.93;4.65;;;;;;;3.70;79.38;101862.09;5077666;28;20103;-80
2022/02/13 00:27:20;;;;;;;6.30;4.85;;;;;;;3.71;79.85;101854.34;5093408;28;20063;-80
2022/02/13 00:29:46;;;;;;;5.07;4.38;;;;;;;3.72;80.08;101847.44;5085509;28;20067;-80
2022/02/13 00:32:11;;;;;;;7.75;5.43;;;;;;;3.71;79.48;101840.50;5058859;28;20040;-80
2022/02/13 00:34:37;;;;;;;7.53;4.85;;;;;;;3.70;79.53;101837.03;5075619;28;20036;-80
2022/02/13 00:37:03;;;;;;;5.00;4.30;;;;;;;3.68;79.20;101830.16;5073486;28;20042;-80
2022/02/13 00:39:28;;;;;;;4.78;4.35;;;;;;;3.69;79.88;101824.09;5089552;28;20070;-80
2022/02/13 00:41:54;;;;;;;5.22;4.40;;;;;;;3.68;79.86;101817.19;5086962;28;20343;-80
2022/02/13 00:44:20;;;;;;;7.90;4.68;;;;;;;3.67;79.56;101810.25;5099959;28;20330;-80
2022/02/13 00:46:45;;;;;;;7.75;4.60;;;;;;;3.65;79.51;101805.06;5087443;28;20019;-80
2022/02/13 00:49:11;;;;;;;6.45;4.50;;;;;;;3.63;79.05;101801.63;5071217;28;20040;-80
2022/02/13 00:51:36;;;;;;;6.00;4.55;;;;;;;3.63;79.81;101799.88;5107444;28;20036;-80
2022/02/13 00:54:02;;;;;;;6.45;4.78;;;;;;;3.64;80.07;101799.03;5086009;28;20043;-80
2022/02/13 00:56:27;;;;;;;4.72;4.07;;;;;;;3.66;80.25;101804.22;5088308;28;20221;-80
2022/02/13 00:58:53;;;;;;;5.38;4.07;;;;;;;3.65;80.06;101797.31;5065993;28;20050;-80
2022/02/13 01:01:19;;;;;;;6.38;4.60;;;;;;;3.65;79.87;101792.13;5066831;28;20028;-80
2022/02/13 01:03:45;;;;;;;6.30;4.35;;;;;;;3.66;79.88;101793.88;5091564;28;20221;-80
2022/02/13 01:06:11;;;;;;;7.70;4.95;;;;;;;3.64;79.75;101790.41;5076503;28;20040;-80
2022/02/13 01:08:36;;;;;;;5.05;4.22;;;;;;;3.64;80.07;101791.25;5091344;28;20030;-80
2022/02/13 01:11:02;;;;;;;6.25;4.85;;;;;;;3.64;80.29;101786.09;5083006;28;20058;-80
2022/02/13 01:13:28;;;;;;;6.18;4.70;;;;;;;3.64;79.86;101767.09;5088954;28;20063;-80
2022/02/13 01:15:54;;;;;;;4.82;4.35;;;;;;;3.64;80.20;101770.53;5098024;28;20094;-80
2022/02/13 01:18:19;;;;;;;6.68;4.75;;;;;;;3.65;80.43;101756.72;5079985;28;20370;-80
2022/02/13 01:20:45;;;;;;;5.57;5.05;;;;;;;3.62;79.87;101756.72;5098059;28;20047;-80
2022/02/13 01:23:10;;;;;;;5.78;4.40;;;;;;;3.63;79.81;101753.25;5079722;28;20346;-80
2022/02/13 01:25:36;;;;;;;6.72;5.00;;;;;;;3.62;80.55;101748.94;5091624;28;20043;-80
2022/02/13 01:28:01;;;;;;;5.47;4.85;;;;;;;3.64;80.39;101749.81;5118216;28;20049;-80
2022/02/13 01:30:27;;;;;;;4.22;3.83;;;;;;;3.62;80.40;101756.72;5099906;28;20039;-80
2022/02/13 01:32:52;;;;;;;4.40;4.00;;;;;;;3.65;80.51;101761.03;5100234;28;20031;-80
2022/02/13 01:35:18;;;;;;;5.70;4.63;;;;;;;3.63;80.09;101760.16;5100392;28;20058;-80
2022/02/13 01:37:43;;;;;;;6.38;4.45;;;;;;;3.59;79.43;101761.88;5100113;28;20039;-80
2022/02/13 01:40:09;;;;;;;4.35;3.95;;;;;;;3.59;80.02;101758.44;5117757;28;20062;-80
2022/02/13 01:42:35;;;;;;;8.95;5.72;;;;;;;3.52;78.15;101757.53;5100154;28;20103;-80
2022/02/13 01:45:01;;;;;;;5.32;4.55;;;;;;;3.55;79.57;101765.34;5081088;28;20039;-80
2022/02/13 01:47:29;;;;;;;6.47;4.38;;;;;;;3.55;79.55;101743.75;5097855;28;20241;-80
2022/02/13 01:49:55;;;;;;;7.40;4.63;;;;;;;3.56;79.84;101732.50;5079586;28;20081;-80
2022/02/13 01:52:20;;;;;;;4.60;4.10;;;;;;;3.55;79.87;101721.31;5097627;28;20043;-80
2022/02/13 01:54:46;;;;;;;4.70;4.07;;;;;;;3.54;79.84;101729.91;5097758;28;20040;-80
2022/02/13 01:57:12;;;;;;;8.25;5.28;;;;;;;3.55;80.31;101729.06;5097119;28;20040;-80
2022/02/13 01:59:38;;;;;;;5.28;4.35;;;;;;;3.55;80.37;101718.72;5079428;28;20035;-80
2022/02/13 02:04:57;;;;;;;7.15;4.40;;;;;;;3.55;80.48;101726.47;5087117;27;20259;-80
2022/02/13 02:07:22;;;;;;;6.95;4.80;;;;;;;3.54;80.08;101714.38;5097332;28;20059;-80
2022/02/13 02:09:51;;;;;;;5.45;4.68;;;;;;;3.53;80.60;101720.44;5093083;28;20044;-80
2022/02/13 02:12:17;;;;;;;4.30;4.00;;;;;;;3.53;80.45;101711.78;5082130;28;20086;-80
2022/02/13 02:14:42;;;;;;;5.68;4.15;;;;;;;3.52;80.19;101708.34;5110442;28;20250;-80
2022/02/13 02:17:08;;;;;;;5.93;4.80;;;;;;;3.49;79.45;101694.50;5117435;28;20227;-80
2022/02/13 02:19:35;;;;;;;5.00;4.50;;;;;;;3.45;79.44;101699.66;5080747;28;20040;-80
2022/02/13 02:22:05;;;;;;;6.50;4.97;;;;;;;3.44;79.22;101697.97;5077383;28;20219;-80
2022/02/13 02:24:31;;;;;;;5.97;5.00;;;;;;;3.42;79.32;101676.38;5079066;28;20047;-80
2022/02/13 02:26:56;;;;;;;5.63;4.60;;;;;;;3.42;79.46;101678.09;5077838;28;20107;-80
2022/02/13 02:29:22;;;;;;;4.18;3.88;;;;;;;3.42;79.81;101672.91;5092397;28;20040;-80
2022/02/13 02:31:47;;;;;;;4.25;3.72;;;;;;;3.41;79.85;101666.88;5081216;28;20062;-80
2022/02/13 02:34:13;;;;;;;5.43;4.18;;;;;;;3.41;79.81;101664.28;5096522;28;20274;-80
2022/02/13 02:36:38;;;;;;;6.65;4.57;;;;;;;3.41;79.62;101659.09;5082920;28;20040;-80
2022/02/13 02:39:04;;;;;;;4.82;4.32;;;;;;;3.41;79.98;101659.09;5063021;28;20040;-80
2022/02/13 02:41:30;;;;;;;5.53;3.90;;;;;;;3.41;80.45;101653.06;5084895;28;20234;-80
2022/02/13 02:43:56;;;;;;;6.07;4.60;;;;;;;3.41;79.51;101658.25;5085893;28;20043;-80
2022/02/13 02:46:21;;;;;;;5.60;5.10;;;;;;;3.38;79.60;101645.28;5066020;28;20028;-80
2022/02/13 02:48:46;;;;;;;5.57;4.80;;;;;;;3.33;78.50;101637.53;5088453;28;20063;-80
2022/02/13 02:51:12;;;;;;;6.57;4.38;;;;;;;3.35;79.96;101637.53;5081407;28;20216;-80
2022/02/13 02:53:37;;;;;;;5.22;4.57;;;;;;;3.36;80.27;101628.88;5107635;28;20047;-80
2022/02/13 02:56:04;;;;;;;7.70;4.45;;;;;;;3.35;79.58;101633.22;5102990;28;20039;-80
2022/02/13 02:58:30;;;;;;;5.68;5.18;;;;;;;3.30;78.33;101628.88;5088357;28;20344;-80
2022/02/13 03:00:56;;;;;;;5.28;4.70;;;;;;;3.29;78.84;101628.00;5100879;28;20382;-80
2022/02/13 03:03:22;;;;;;;5.90;4.50;;;;;;;3.30;79.12;101618.53;5100652;28;20062;-80
2022/02/13 03:05:50;;;;;;;4.60;4.15;;;;;;;3.31;79.86;101608.19;5082150;28;20128;-80
2022/02/13 03:08:17;;;;;;;5.20;4.07;;;;;;;3.34;80.20;101607.31;5082926;28;20039;-80
2022/02/13 03:10:43;;;;;;;4.93;4.03;;;;;;;3.34;80.25;101599.53;5115372;28;20035;-80
2022/02/13 03:13:10;;;;;;;5.93;4.25;;;;;;;3.34;80.19;101590.03;5120773;28;20024;-82
2022/02/13 03:15:36;;;;;;;5.20;4.70;;;;;;;3.31;79.38;101590.06;5121165;28;20032;-82
2022/02/13 03:18:02;;;;;;;5.90;5.28;;;;;;;3.32;80.03;101576.22;5102405;28;20115;-82
2022/02/13 03:20:28;;;;;;;7.13;4.75;;;;;;;3.32;80.20;101573.63;5102041;28;20098;-82
2022/02/13 03:22:53;;;;;;;4.07;3.78;;;;;;;3.33;80.65;101558.97;5120733;28;20364;-82
2022/02/13 03:25:19;;;;;;;4.28;3.85;;;;;;;3.32;80.47;101570.19;5085787;28;20032;-82
2022/02/13 03:27:44;;;;;;;5.43;4.90;;;;;;;3.29;80.19;101565.84;5120723;28;20193;-82
2022/02/13 03:30:10;;;;;;;4.50;3.85;;;;;;;3.31;80.57;101568.44;5101854;28;20079;-82
2022/02/13 03:32:35;;;;;;;5.50;4.05;;;;;;;3.30;80.64;101557.25;5102467;28;20036;-82
2022/02/13 03:35:01;;;;;;;5.75;4.38;;;;;;;3.31;80.61;101553.81;5101784;28;20028;-82
2022/02/13 03:37:26;;;;;;;6.97;4.75;;;;;;;3.31;80.19;101552.91;5102372;28;20263;-82
2022/02/13 03:39:53;;;;;;;6.90;4.72;;;;;;;3.29;80.65;101539.97;5114774;28;20271;-82
2022/02/13 03:42:18;;;;;;;7.15;4.72;;;;;;;3.28;79.76;101545.19;5099675;28;20094;-82
2022/02/13 03:44:44;;;;;;;6.38;4.85;;;;;;;3.26;80.20;101542.56;5065302;28;20028;-82
2022/02/13 03:47:09;;;;;;;7.72;4.80;;;;;;;3.27;80.61;101549.47;5081584;28;20058;-82
2022/02/13 03:49:35;;;;;;;4.68;4.28;;;;;;;3.21;78.50;101532.22;5081986;28;20089;-82
2022/02/13 03:52:01;;;;;;;5.22;4.72;;;;;;;3.22;79.74;101533.06;5063532;28;20031;-82
2022/02/13 03:54:26;;;;;;;5.78;4.32;;;;;;;3.24;80.46;101533.94;5085174;28;20039;-80
2022/02/13 03:56:52;;;;;;;5.75;4.38;;;;;;;3.23;80.36;101530.47;5077626;28;20031;-80
2022/02/13 03:59:17;;;;;;;5.10;4.65;;;;;;;3.24;80.63;101539.97;5050206;28;20347;-80
2022/02/13 04:01:45;;;;;;;5.10;4.10;;;;;;;3.25;80.90;101538.25;5086188;28;20423;-80
2022/02/13 04:04:10;;;;;;;7.50;5.80;;;;;;;3.16;78.08;101541.69;5111882;28;20059;-80
2022/02/13 04:06:35;;;;;;;7.68;5.97;;;;;;;3.18;79.37;101537.38;5120208;28;20145;-80
2022/02/13 04:09:02;;;;;;;6.88;5.10;;;;;;;3.15;78.79;101546.88;5065297;28;20039;-80
2022/02/13 04:11:27;;;;;;;4.55;4.13;;;;;;;3.18;79.59;101544.28;5080814;28;20039;-80
2022/02/13 04:13:52;;;;;;;9.90;5.65;;;;;;;3.14;78.92;101534.78;5099212;28;20107;-80
2022/02/13 04:16:18;;;;;;;5.95;5.18;;;;;;;3.14;79.75;101539.97;5081123;28;20032;-80
2022/02/13 04:18:43;;;;;;;6.10;4.60;;;;;;;3.13;79.87;101543.41;5099412;28;20052;-80
2022/02/13 04:21:09;;;;;;;5.43;3.95;;;;;;;3.14;80.45;101542.56;5117874;28;20039;-80
2022/02/13 04:23:34;;;;;;;6.57;4.40;;;;;;;3.13;79.83;101536.53;5119924;28;20207;-80
2022/02/13 04:26:00;;;;;;;6.05;5.15;;;;;;;3.07;78.47;101539.09;5119670;28;20134;-80
2022/02/13 04:28:27;;;;;;;4.85;4.35;;;;;;;3.06;79.36;101529.63;5119841;28;20290;-80
2022/02/13 04:30:53;;;;;;;6.47;5.32;;;;;;;3.04;78.26;101537.38;5119329;28;20042;-80
2022/02/13 04:33:19;;;;;;;7.82;5.00;;;;;;;3.03;79.50;101529.59;5101107;28;20331;-80
2022/02/13 04:35:44;;;;;;;5.70;4.90;;;;;;;3.05;79.92;101531.31;5112943;28;20051;-80
2022/02/13 04:38:09;;;;;;;6.90;4.90;;;;;;;3.03;79.89;101538.22;5098357;28;20050;-80
2022/02/13 04:40:35;;;;;;;7.35;5.32;;;;;;;3.06;80.27;101534.78;5099221;28;20029;-80
2022/02/13 04:43:00;;;;;;;6.07;4.97;;;;;;;3.02;78.78;101533.91;5080566;28;20050;-80
2022/02/13 04:45:26;;;;;;;5.65;4.70;;;;;;;3.04;79.27;101539.09;5080610;28;20036;-80
2022/02/13 04:47:52;;;;;;;5.47;4.57;;;;;;;3.06;80.13;101535.66;5080252;28;20035;-80
2022/02/13 04:50:21;;;;;;;7.80;5.82;;;;;;;3.02;78.99;101533.03;5080658;28;20228;-80
2022/02/13 04:52:52;;;;;;;7.85;4.82;;;;;;;3.04;79.79;101534.78;5081058;28;20032;-80
2022/02/13 04:55:18;;;;;;;7.93;6.68;;;;;;;3.01;79.33;101523.56;5098008;28;20070;-80
2022/02/13 04:57:45;;;;;;;6.32;5.03;;;;;;;3.04;80.18;101532.19;5080459;28;20111;-80
2022/02/13 05:00:11;;;;;;;8.68;4.75;;;;;;;3.05;79.44;101527.88;5098129;28;20047;-80
2022/02/13 05:02:37;;;;;;;5.70;4.82;;;;;;;3.01;78.95;101520.97;5098683;28;20080;-80
2022/02/13 05:05:03;;;;;;;5.68;5.10;;;;;;;3.03;79.40;101514.94;5078813;28;20055;-80
2022/02/13 05:07:29;;;;;;;7.13;5.57;;;;;;;2.98;78.93;101501.13;5071525;28;20391;-80
2022/02/13 05:09:54;;;;;;;7.82;5.90;;;;;;;2.98;78.75;101489.91;5065721;28;20476;-80
2022/02/13 05:12:19;;;;;;;5.38;4.88;;;;;;;3.02;79.72;101489.03;5074605;28;20035;-80
2022/02/13 05:14:46;;;;;;;5.20;4.70;;;;;;;3.03;79.92;101490.78;5091719;28;20105;-80
2022/02/13 05:17:11;;;;;;;4.47;4.07;;;;;;;3.05;80.25;101483.88;5105267;28;20077;-80
2022/02/13 05:19:37;;;;;;;5.40;4.88;;;;;;;3.04;79.82;101479.59;5100166;28;20243;-80
2022/02/13 05:22:03;;;;;;;7.68;5.05;;;;;;;3.06;80.25;101483.03;5097902;28;20429;-80
2022/02/13 05:24:28;;;;;;;9.00;5.35;;;;;;;3.04;79.66;101467.50;5080318;28;20042;-80
2022/02/13 05:26:54;;;;;;;6.43;4.75;;;;;;;3.05;79.85;101471.78;5079766;28;20039;-80
2022/02/13 05:29:19;;;;;;;5.10;4.40;;;;;;;3.07;80.21;101469.22;5079902;28;20051;-80
2022/02/13 05:31:45;;;;;;;5.53;4.88;;;;;;;3.06;79.94;101463.19;5098137;28;20364;-80
2022/02/13 05:34:15;;;;;;;5.88;4.95;;;;;;;3.12;80.31;101461.47;5118499;28;20054;-80
2022/02/13 05:36:42;;;;;;;7.03;5.13;;;;;;;3.13;80.85;101463.16;5118696;28;20045;-80
2022/02/13 05:39:07;;;;;;;6.53;5.40;;;;;;;3.12;79.04;101453.69;5118193;28;20319;-80
2022/02/13 05:41:32;;;;;;;6.43;5.07;;;;;;;3.14;80.04;101450.22;5083249;28;20037;-80
2022/02/13 05:43:58;;;;;;;8.13;4.60;;;;;;;3.16;80.38;101445.06;5109588;28;20089;-80
2022/02/13 05:46:25;;;;;;;6.63;5.28;;;;;;;3.16;80.57;101438.16;5079330;28;20040;-80
2022/02/13 05:48:51;;;;;;;5.00;4.30;;;;;;;3.18;81.05;101439.00;5063240;28;20024;-80
2022/02/13 05:51:16;;;;;;;4.82;4.32;;;;;;;3.19;80.68;101432.13;5097813;28;20109;-80
2022/02/13 05:53:42;;;;;;;4.53;4.00;;;;;;;3.20;80.91;101437.31;5098029;28;20259;-80
2022/02/13 05:56:07;;;;;;;8.23;5.50;;;;;;;3.16;79.75;101426.94;5079231;28;20044;-80
2022/02/13 05:58:36;;;;;;;7.43;5.30;;;;;;;3.17;80.28;101423.50;5097796;28;20067;-80
2022/02/13 06:01:01;;;;;;;7.55;4.97;;;;;;;3.17;80.71;101416.59;5097332;28;20044;-80
2022/02/13 06:03:27;;;;;;;7.30;5.30;;;;;;;3.19;80.58;101417.44;5097423;28;20223;-80
2022/02/13 06:05:52;;;;;;;7.00;5.05;;;;;;;3.17;80.07;101413.16;5098556;28;20311;-80
2022/02/13 06:08:17;;;;;;;7.13;5.47;;;;;;;3.16;80.09;101411.41;5101685;28;20043;-80
2022/02/13 06:10:43;;;;;;;8.10;5.20;;;;;;;3.14;79.38;101410.56;5083112;28;20416;-80
2022/02/13 06:13:08;;;;;;;6.82;5.20;;;;;;;3.17;80.29;101415.75;5099012;28;20048;-80
2022/02/13 06:15:34;;;;;;;6.63;4.72;;;;;;;3.18;80.38;101413.13;5122270;28;20035;-80
2022/02/13 06:17:59;;;;;;;5.60;4.97;;;;;;;3.17;80.30;101411.41;5105823;28;20107;-80
2022/02/13 06:20:24;;;;;;;5.80;5.18;;;;;;;3.15;79.52;101412.28;5075148;28;20062;-80
2022/02/13 06:22:50;;;;;;;6.18;5.45;;;;;;;3.16;79.76;101408.81;5114461;28;20078;-80
2022/02/13 06:25:15;;;;;;;9.02;5.90;;;;;;;3.14;79.39;101398.47;5072199;28;20032;-80
2022/02/13 06:27:41;;;;;;;8.10;4.88;;;;;;;3.20;80.49;101397.59;5087842;28;20035;-80
2022/02/13 06:30:07;;;;;;;5.38;4.85;;;;;;;3.20;80.28;101406.25;5062231;28;20697;-80
2022/02/13 06:32:32;;;;;;;7.63;5.13;;;;;;;3.17;79.40;101389.84;5104293;28;20062;-80
2022/02/13 06:34:57;;;;;;;5.53;5.03;;;;;;;3.17;79.76;101395.03;5113867;28;20118;-80
2022/02/13 06:37:26;;;;;;;6.93;5.65;;;;;;;3.18;79.95;101389.81;5089548;28;20251;-80
2022/02/13 06:39:51;;;;;;;7.40;5.37;;;;;;;3.16;79.69;101388.13;5067568;28;20044;-80
2022/02/13 06:42:17;;;;;;;6.50;5.28;;;;;;;3.18;80.35;101384.66;5085834;28;20059;-80
2022/02/13 06:44:42;;;;;;;7.18;4.95;;;;;;;3.21;80.95;101389.84;5082838;28;20146;-80
2022/02/13 06:47:08;;;;;;;10.35;5.55;;;;;;;3.18;79.36;101386.38;5082778;28;20165;-80
2022/02/13 06:49:33;;;;;;;5.10;4.70;;;;;;;3.20;80.31;101379.47;5077512;28;20059;-80
2022/02/13 06:51:58;;;;;;;6.03;5.03;;;;;;;3.21;80.53;101376.88;5121196;28;20042;-80
2022/02/13 06:54:24;;;;;;;15.85;6.18;;;;;;;3.23;80.53;101380.34;5067452;28;20083;-80
2022/02/13 06:56:49;;;;;;;7.75;4.55;;;;;;;3.25;80.78;101388.09;5044634;28;20027;-80
2022/02/13 06:59:15;;;;;;;8.75;5.18;;;;;;;3.26;80.99;101384.66;5049642;28;20261;-80
2022/02/13 07:01:40;;;;;;;4.97;4.40;;;;;;;3.30;81.27;101380.34;5078859;28;20102;-80
2022/02/13 07:04:06;;;;;;;5.57;4.90;;;;;;;3.32;81.26;101391.56;5077342;28;20342;-80
2022/02/13 07:06:31;;;;;;;7.18;4.88;;;;;;;3.33;81.14;101398.44;5061185;28;20063;-80
2022/02/13 07:08:56;;;;;;;7.05;5.03;;;;;;;3.30;80.25;101386.38;5060068;28;20380;-80
2022/02/13 07:11:22;;;;;;;4.68;4.28;;;;;;;3.31;80.55;101395.88;5078483;28;20226;-80
2022/02/13 07:13:47;;;;;;;5.68;5.00;;;;;;;3.32;80.74;101381.19;5060767;28;20297;-80
2022/02/13 07:16:12;;;;;;;6.25;5.38;;;;;;;3.31;80.93;101382.94;5077905;28;20348;-80
2022/02/13 07:18:38;;;;;;;7.43;5.53;;;;;;;3.30;79.65;101386.38;5078270;28;20355;-80
2022/02/13 07:21:03;;;;;;;5.05;4.55;;;;;;;3.33;80.66;101381.19;5115072;28;20325;-80
2022/02/13 07:23:29;;;;;;;5.03;4.25;;;;;;;3.35;80.95;101382.06;5101275;28;20062;-80
2022/02/13 07:25:54;;;;;;;5.55;4.93;;;;;;;3.37;81.31;101401.03;5118949;28;20552;-80
2022/02/13 07:31:03;;;;;;;5.90;4.70;;;;;;;3.40;81.09;101389.78;5088775;28;20034;-80
2022/02/13 07:33:29;;;;;;;5.13;4.63;;;;;;;3.40;81.55;101379.44;5083632;28;20048;-80
2022/02/13 07:35:54;;;;;;;9.57;4.47;;;;;;;3.42;81.77;101381.19;5065182;28;20087;-80
2022/02/13 07:38:19;;;;;;;5.35;4.85;;;;;;;3.44;81.91;101363.91;5089431;28;20367;-80
2022/02/13 07:40:45;;;;;;;8.73;4.75;;;;;;;3.45;81.92;101367.34;5075182;28;20044;-80
2022/02/13 07:43:11;;;;;;;6.63;5.20;;;;;;;3.45;81.05;101372.53;5087753;28;20047;-80
2022/02/13 07:45:37;;;;;;;6.90;5.13;;;;;;;3.45;81.30;101367.34;5083671;28;20037;-80
2022/02/13 07:48:02;;;;;;;5.55;4.60;;;;;;;3.45;81.69;101351.81;5090202;28;20099;-80
2022/02/13 07:50:28;;;;;;;4.95;4.45;;;;;;;3.46;81.79;101361.31;5084725;28;20067;-80
2022/02/13 07:52:53;;;;;;;5.15;4.57;;;;;;;3.49;81.64;101360.44;5058678;28;20071;-80
2022/02/13 07:55:19;;;;;;;5.30;4.53;;;;;;;3.48;81.74;101356.13;5091731;28;20063;-80
2022/02/13 07:57:44;;;;;;;6.10;4.90;;;;;;;3.47;80.99;101357.84;5086508;28;20044;-80
2022/02/13 08:00:10;;;;;;;9.50;6.10;;;;;;;3.45;80.16;101354.41;5091498;28;20125;-80
2022/02/13 08:02:36;;;;;;;7.25;5.30;;;;;;;3.48;80.94;101348.38;5092644;28;20058;-80
2022/02/13 08:05:03;;;;;;;9.50;5.70;;;;;;;3.48;81.02;101354.41;5092085;28;20055;-80
2022/02/13 08:07:29;;;;;;;7.57;5.45;;;;;;;3.48;81.26;101336.28;5093026;28;20342;-80
2022/02/13 08:09:54;;;;;;;5.13;4.70;;;;;;;3.50;81.17;101344.03;5096254;28;20107;-80
2022/02/13 08:12:20;;;;;;;4.65;4.30;;;;;;;3.50;80.35;101331.94;5093636;28;20132;-80
2022/02/13 08:14:45;;;;;;;6.78;5.40;;;;;;;3.51;81.33;101332.78;5083132;28;20139;-80
2022/02/13 08:17:11;;;;;;;5.60;5.05;;;;;;;3.54;81.55;101330.22;5091899;28;20032;-80
2022/02/13 08:19:38;;;;;;;8.23;4.78;;;;;;;3.54;81.46;101327.63;5105043;28;20239;-80
2022/02/13 08:22:04;;;;;;;6.90;5.00;;;;;;;3.56;81.58;101325.88;5099018;28;20294;-80
2022/02/13 08:24:30;;;;;;;10.02;5.00;;;;;;;3.55;80.35;101313.81;5085705;28;20382;-80
2022/02/13 08:26:55;;;;;;;13.45;5.88;;;;;;;3.54;80.81;101312.94;5067144;28;20036;-80
2022/02/13 08:29:21;;;;;;;6.57;5.32;;;;;;;3.57;80.92;101315.50;5062393;28;20036;-80
2022/02/13 08:31:49;;;;;;;8.02;5.05;;;;;;;3.56;81.29;101312.94;5071475;28;20040;-80
2022/02/13 08:34:14;;;;;;;5.27;4.77;;;;;;;3.59;81.41;101312.94;5091683;28;20032;-80
2022/02/13 08:36:40;;;;;;;9.07;6.47;;;;;;;3.54;79.39;101309.47;5088940;28;20039;-80
2022/02/13 08:39:05;;;;;;;5.30;4.80;;;;;;;3.55;80.36;101304.31;5075637;28;20133;-80
2022/02/13 08:41:31;;;;;;;7.50;5.43;;;;;;;3.56;80.02;101303.41;5066051;28;20074;-80
2022/02/13 08:43:57;;;;;;;7.07;5.25;;;;;;;3.57;79.94;101305.16;5081902;28;20040;-80
2022/02/13 08:46:23;;;;;;;6.63;5.07;;;;;;;3.58;79.78;101300.81;5074714;28;20039;-80
2022/02/13 08:48:49;;;;;;;8.50;6.03;;;;;;;3.57;79.79;101292.22;5061914;28;20358;-80
2022/02/13 08:51:15;;;;;;;7.10;6.00;;;;;;;3.58;80.29;101293.91;5081228;28;20028;-80
2022/02/13 08:53:40;;;;;;;10.70;6.10;;;;;;;3.60;79.88;101291.31;5058194;28;20044;-80
2022/02/13 08:56:06;;;;;;;6.72;5.88;;;;;;;3.59;79.83;101285.28;5067466;28;20040;-80
2022/02/13 08:58:32;;;;;;;6.78;5.07;;;;;;;3.61;80.18;101288.72;5096617;28;20031;-80
2022/02/13 09:00:59;;;;;;;5.03;4.53;;;;;;;3.63;80.27;101276.63;5095076;28;20398;-80
2022/02/13 09:03:24;;;;;;;7.38;5.55;;;;;;;3.65;80.64;101274.03;5059334;28;20078;-80
2022/02/13 09:05:50;;;;;;;6.32;5.15;;;;;;;3.68;80.73;101284.38;5063135;28;20318;-80
2022/02/13 09:08:16;;;;;;;10.65;6.22;;;;;;;3.69;79.86;101280.06;5084845;28;20060;-80
2022/02/13 09:10:41;;;;;;;6.88;5.70;;;;;;;3.68;79.70;101281.78;5093989;28;20067;-80
2022/02/13 09:13:08;;;;;;;10.38;4.93;;;;;;;3.71;80.29;101278.31;5064012;28;20081;-80
2022/02/13 09:15:33;;;;;;;10.57;5.95;;;;;;;3.69;79.34;101269.69;5076131;28;20354;-80
2022/02/13 09:17:59;;;;;;;6.75;5.93;;;;;;;3.70;79.78;101261.06;5077200;28;20036;-80
2022/02/13 09:20:25;;;;;;;8.48;5.95;;;;;;;3.71;79.20;101250.72;5069610;28;20059;-80
2022/02/13 09:22:50;;;;;;;8.20;5.70;;;;;;;3.72;79.19;101243.78;5088999;28;20039;-80
2022/02/13 09:25:16;;;;;;;8.35;5.78;;;;;;;3.74;79.91;101232.53;5066136;28;20036;-80
2022/02/13 09:27:41;;;;;;;6.80;5.13;;;;;;;3.74;79.85;101234.28;5094368;28;20074;-80
2022/02/13 09:30:07;;;;;;;6.85;5.57;;;;;;;3.77;80.38;101229.94;5077345;28;20244;-80
2022/02/13 09:32:33;;;;;;;8.38;5.80;;;;;;;3.80;80.16;101229.03;5089703;28;20036;-80
2022/02/13 09:34:58;;;;;;;7.30;5.28;;;;;;;3.82;80.07;101232.47;5066886;28;20031;-80
2022/02/13 09:37:24;;;;;;;6.70;5.47;;;;;;;3.83;80.58;101237.66;5081531;28;20059;-80
2022/02/13 09:39:50;;;;;;;5.80;4.97;;;;;;;3.85;80.31;101235.06;5082000;28;20397;-80
2022/02/13 09:42:19;;;;;;;5.22;4.53;;;;;;;3.87;80.63;101229.88;5064004;28;20240;-80
2022/02/13 09:44:45;;;;;;;7.05;5.00;;;;;;;3.87;79.90;101235.06;5096263;28;20036;-80
2022/02/13 09:47:12;;;;;;;6.75;6.05;;;;;;;3.85;79.38;101235.91;5076007;28;20040;-80
2022/02/13 09:49:38;;;;;;;9.25;5.80;;;;;;;3.86;79.38;101223.84;5082451;28;20032;-80
2022/02/13 09:52:05;;;;;;;6.80;5.45;;;;;;;3.86;79.46;101221.25;5063906;28;20071;-80
2022/02/13 09:54:30;;;;;;;5.43;4.93;;;;;;;3.87;79.90;101217.75;5088592;28;20308;-80
2022/02/13 09:57:59;;;;;;;7.30;5.13;;;;;;;3.87;79.08;101219.50;5075392;28;20060;-80
2022/02/13 09:59:59;;;;;;;9.73;5.80;;;;;;;3.87;79.47;101215.16;5086537;28;20051;-80
2022/02/13 10:02:34;;;;;;;6.82;5.13;;;;;;;3.87;79.48;101212.56;5082556;28;20028;-80
2022/02/13 10:05:00;;;;;;;7.68;5.03;;;;;;;3.90;79.54;101222.94;5082369;28;20316;-80
2022/02/13 10:07:26;;;;;;;7.90;5.35;;;;;;;3.89;79.20;101221.19;5089047;28;20423;-80
2022/02/13 10:10:02;;;;;;;7.03;5.28;;;;;;;3.89;79.45;101205.66;5083638;28;20044;-80
2022/02/13 10:12:43;;;;;;;8.23;5.45;;;;;;;3.93;80.20;101204.78;5077339;28;20062;-80
2022/02/13 10:15:20;;;;;;;6.18;5.43;;;;;;;3.96;80.28;101202.16;5094307;28;20035;-80
2022/02/13 10:18:00;;;;;;;9.23;5.82;;;;;;;3.99;80.37;101204.72;5064657;28;20099;-80
2022/02/13 10:20:30;;;;;;;5.47;4.78;;;;;;;3.99;80.00;101196.94;5057293;28;20039;-80
2022/02/13 10:23:02;;;;;;;5.40;4.90;;;;;;;4.02;80.39;101199.53;5088028;28;20348;-80
2022/02/13 10:25:27;;;;;;;8.40;5.13;;;;;;;4.05;80.50;101196.03;5076946;28;20466;-80
2022/02/13 10:27:53;;;;;;;8.77;6.20;;;;;;;4.07;80.71;101189.09;5093772;28;20036;-80
2022/02/13 10:30:55;;;;;;;7.50;5.18;;;;;;;4.10;80.55;101183.06;5063853;28;20032;-80
2022/02/13 10:33:27;;;;;;;8.13;5.78;;;;;;;4.12;80.67;101178.72;5001493;28;20038;-80
2022/02/13 10:36:10;;;;;;;8.13;5.15;;;;;;;4.11;79.86;101179.56;5076154;28;20123;-80
2022/02/13 10:38:38;;;;;;;7.60;5.00;;;;;;;4.11;79.34;101180.47;5093765;28;20040;-80
2022/02/13 10:41:16;;;;;;;8.25;5.68;;;;;;;4.11;79.35;101161.44;5093011;28;20028;-80
2022/02/13 10:43:59;;;;;;;7.05;5.20;;;;;;;4.13;79.64;101162.28;5082382;28;20036;-80
2022/02/13 10:46:29;;;;;;;6.25;5.15;;;;;;;4.12;78.31;101163.16;5064785;28;20058;-80
2022/02/13 10:48:56;;;;;;;7.30;4.80;;;;;;;4.13;79.34;101157.09;5086006;28;20062;-80
2022/02/13 10:51:22;;;;;;;5.68;5.07;;;;;;;4.13;79.00;101150.19;5095544;28;20051;-80
2022/02/13 10:53:49;;;;;;;10.57;5.28;;;;;;;4.16;79.55;101141.50;5093250;28;20107;-80
2022/02/13 10:56:14;;;;;;;9.25;5.20;;;;;;;4.16;79.48;101142.38;5067915;28;20081;-80
2022/02/13 10:58:39;;;;;;;7.80;5.47;;;;;;;4.20;79.59;101153.56;5077747;28;20040;-80
2022/02/13 11:01:06;;;;;;;8.30;5.10;;;;;;;4.24;79.51;101139.72;5078376;28;20039;-80
2022/02/13 11:03:34;;;;;;;9.00;5.28;;;;;;;4.28;79.24;101138.81;5076162;28;20123;-80
2022/02/13 11:06:01;;;;;;;6.60;5.18;;;;;;;4.31;78.45;101146.56;5076584;28;20267;-80
2022/02/13 11:08:30;;;;;;;7.50;4.95;;;;;;;4.34;78.55;101115.41;5093004;28;20039;-80
2022/02/13 11:10:57;;;;;;;5.53;4.95;;;;;;;4.38;78.41;101109.34;5095070;28;20293;-80
2022/02/13 11:13:31;;;;;;;8.88;4.97;;;;;;;4.40;77.34;101107.56;5095325;28;20036;-80
2022/02/13 11:15:57;;;;;;;5.05;4.63;;;;;;;4.42;77.38;101110.13;5095476;28;20040;-80
2022/02/13 11:18:28;;;;;;;9.27;5.15;;;;;;;4.44;78.00;101105.81;5077612;28;20419;-80
2022/02/13 11:20:55;;;;;;;5.82;4.50;;;;;;;4.48;77.86;101106.63;5072980;28;20103;-80
2022/02/13 11:23:23;;;;;;;9.02;5.10;;;;;;;4.52;77.72;101095.34;5077648;28;20285;-80
2022/02/13 11:25:54;;;;;;;9.38;5.35;;;;;;;4.55;77.28;101093.56;5076295;28;20027;-80
2022/02/13 11:28:26;;;;;;;7.63;5.22;;;;;;;4.60;77.74;101106.47;5095692;28;20036;-80
2022/02/13 11:30:54;;;;;;;9.38;5.10;;;;;;;4.61;77.53;101093.47;5092792;28;20059;-80
2022/02/13 11:33:22;;;;;;;5.25;4.68;;;;;;;4.65;76.94;101085.69;5075577;28;20042;-80
2022/02/13 11:35:59;;;;;;;6.30;5.20;;;;;;;4.69;77.46;101079.56;5093754;28;20059;-80